Home   Weather   India   Amritsar   Past weeks
Flag for India

Past Weather in Amritsar, Punjab, India — Yesterday and Last 2 Weeks

Currently: 100 °F. Broken clouds. (Weather station: Amritsar Airport, India). See more current weather

Past Weather in Amritsar — Graph

°F

Amritsar Temperature Yesterday

Maximum temperature yesterday: 97 °F (at 2:30 pm)
Minimum temperature yesterday: 79 °F (at 12:30 am)
Average temperature yesterday: 88 °F

High & Low Weather Summary for the Past Weeks

 TemperatureHumidityPressure
High115 °F (Jun 12, 2:30 pm)89% (Jun 20, 3:00 pm)29.68 "Hg (Jun 20, 3:00 pm)
Low77 °F (Jun 9, 5:30 am)14% (Jun 9, 3:30 pm)29.30 "Hg (Jun 19, 3:30 pm)
Average96 °F44%29.51 "Hg
* Reported Jun 7 12:30 pm — Jun 22 1:00 pm, Amritsar. Weather by CustomWeather, © 2024

Note: Actual official high and low records may vary slightly from our data, if they occured in-between our weather recording intervals... More about our weather records

Amritsar Weather History for the Previous 24 Hours

Scroll right to see more
 ConditionsComfort  
Time TempWeatherWind HumidityBarometerVisibility
1:00 pm
Sat, Jun 22
100 °FBroken clouds.7 mph40%29.53 "Hg4 mi
12:30 pm100 °FBroken clouds.5 mph40%29.56 "Hg4 mi
12:00 pm100 °FBroken clouds.6 mph40%29.56 "Hg4 mi
11:30 am99 °FBroken clouds.6 mph47%29.56 "Hg4 mi
11:00 am99 °FScattered clouds.2 mph47%29.56 "Hg4 mi
10:30 am97 °FScattered clouds.3 mph50%29.56 "Hg4 mi
10:00 am97 °FScattered clouds.2 mph53%29.56 "Hg3 mi
9:30 am93 °FScattered clouds.3 mph63%29.56 "Hg3 mi
9:00 am91 °FScattered clouds.3 mph67%29.56 "Hg3 mi
8:00 am88 °FScattered clouds.2 mph75%29.56 "Hg2 mi
7:30 am86 °FFog.5 mph79%29.53 "Hg2 mi
7:00 am84 °FFog.2 mph84%29.53 "Hg2 mi
6:30 am82 °FFog.2 mph89%29.50 "Hg2 mi
6:00 am82 °FFog.2 mph84%29.50 "Hg2 mi
5:30 am82 °FFog.2 mph84%29.50 "Hg2 mi
5:00 am82 °FFog.2 mph84%29.50 "Hg3 mi
4:30 am82 °FFog.2 mph84%29.50 "Hg3 mi
4:00 am84 °FFog.2 mph79%29.50 "Hg3 mi
3:30 am82 °FFog.2 mph84%29.50 "Hg3 mi
2:30 am84 °FFog.2 mph79%29.50 "Hg3 mi
1:30 am84 °FFog.3 mph74%29.53 "Hg3 mi
1:00 am84 °FFog.3 mph74%29.53 "Hg3 mi
12:30 am86 °FFog.5 mph75%29.53 "Hg3 mi
12:00 am86 °FPassing clouds.6 mph70%29.53 "Hg3 mi
11:30 pm
Fri, Jun 21
86 °FPassing clouds.5 mph70%29.53 "Hg3 mi
11:00 pm86 °FPassing clouds.5 mph70%29.53 "Hg3 mi
10:30 pm86 °FPassing clouds.5 mph70%29.53 "Hg3 mi
10:00 pm88 °FPassing clouds.3 mph66%29.53 "Hg3 mi
9:30 pm88 °FPassing clouds.3 mph66%29.53 "Hg3 mi
9:00 pm90 °FPassing clouds.3 mph63%29.50 "Hg3 mi
8:30 pm90 °FPassing clouds.5 mph63%29.50 "Hg4 mi
8:00 pm91 °FScattered clouds.2 mph56%29.50 "Hg4 mi
7:30 pm91 °FScattered clouds.1 mph63%29.50 "Hg4 mi
7:00 pm93 °FBroken clouds.1 mph53%29.50 "Hg4 mi
6:30 pm95 °FBroken clouds.2 mph50%29.50 "Hg4 mi
6:00 pm95 °FBroken clouds.3 mph50%29.50 "Hg4 mi
5:30 pm95 °FBroken clouds.7 mph50%29.50 "Hg4 mi
5:00 pm95 °FBroken clouds.6 mph53%29.50 "Hg4 mi
4:30 pm97 °FBroken clouds.3 mph50%29.53 "Hg4 mi
4:00 pm95 °FBroken clouds.5 mph53%29.53 "Hg4 mi
3:30 pm97 °FBroken clouds.6 mph47%29.53 "Hg4 mi
3:00 pm97 °FBroken clouds.3 mph50%29.56 "Hg4 mi
2:30 pm97 °FBroken clouds.5 mph50%29.56 "Hg4 mi
Weather by CustomWeather, © 2024

See weather overview